Dissen, Missouri
Current Conditions -  °F | °C
As of 7:55 PM on Sunday 21 Dec 2014 (Local Time) from KFYG Reporting Station
Overcast Overcast  
Wind Chill: 35°   Ceiling: 4900
Heat Index: 41°   Visibility: 10mi
Dew Point: 32°   Wind: 9mph
Humidity: 70%   Direction: 140°SE
Pressure: 29.96"   Gusts: NA
Location:  38.5502°N, 91.2585°W
Report Text: KFYG 220155Z AUTO 14008KT 10SM SCT043 BKN049 OVC060 05/00 A2996 RMK AO2
Loading
Personal Weather Stations






























Interactive Weather Map New forecast layout! Learn more

10-Day Weather Forecast

Advertisements
Track Severe Weather on mobile